sensor_id;sensor_type;location;lat;lon;timestamp;temperature;humidity
13684;DHT22;6914;53.552;9.908;2023-04-22T00:01:17;11.50;91.90
13684;DHT22;6914;53.552;9.908;2023-04-22T00:03:44;11.50;92.30
13684;DHT22;6914;53.552;9.908;2023-04-22T00:06:11;11.50;94.20
13684;DHT22;6914;53.552;9.908;2023-04-22T00:08:38;11.50;93.40
13684;DHT22;6914;53.552;9.908;2023-04-22T00:11:08;11.70;92.60
13684;DHT22;6914;53.552;9.908;2023-04-22T00:13:35;11.40;92.70
13684;DHT22;6914;53.552;9.908;2023-04-22T00:16:03;11.40;93.20
13684;DHT22;6914;53.552;9.908;2023-04-22T00:18:32;11.40;94.60
13684;DHT22;6914;53.552;9.908;2023-04-22T00:20:59;11.70;94.20
13684;DHT22;6914;53.552;9.908;2023-04-22T00:23:26;11.40;93.20
13684;DHT22;6914;53.552;9.908;2023-04-22T00:25:53;11.40;92.70
13684;DHT22;6914;53.552;9.908;2023-04-22T00:28:21;11.40;94.40
13684;DHT22;6914;53.552;9.908;2023-04-22T00:30:48;11.40;93.80
13684;DHT22;6914;53.552;9.908;2023-04-22T00:33:15;11.60;93.60
13684;DHT22;6914;53.552;9.908;2023-04-22T00:35:43;11.40;94.90
13684;DHT22;6914;53.552;9.908;2023-04-22T00:38:10;11.30;95.40
13684;DHT22;6914;53.552;9.908;2023-04-22T00:40:37;11.30;95.90
13684;DHT22;6914;53.552;9.908;2023-04-22T00:43:05;11.30;99.40
13684;DHT22;6914;53.552;9.908;2023-04-22T00:45:36;11.20;98.50
13684;DHT22;6914;53.552;9.908;2023-04-22T00:48:03;11.20;99.90
13684;DHT22;6914;53.552;9.908;2023-04-22T00:50:33;11.50;99.30
13684;DHT22;6914;53.552;9.908;2023-04-22T00:53:00;11.20;99.90
13684;DHT22;6914;53.552;9.908;2023-04-22T00:55:27;11.20;99.00
13684;DHT22;6914;53.552;9.908;2023-04-22T00:57:54;11.10;99.90
13684;DHT22;6914;53.552;9.908;2023-04-22T01:00:23;11.30;99.90
13684;DHT22;6914;53.552;9.908;2023-04-22T01:02:53;11.20;99.90
13684;DHT22;6914;53.552;9.908;2023-04-22T01:05:20;12.00;99.90
13684;DHT22;6914;53.552;9.908;2023-04-22T01:07:47;11.10;99.90
13684;DHT22;6914;53.552;9.908;2023-04-22T01:10:14;11.20;99.90
13684;DHT22;6914;53.552;9.908;2023-04-22T01:12:41;11.20;99.90
13684;DHT22;6914;53.552;9.908;2023-04-22T01:15:09;11.30;99.90
13684;DHT22;6914;53.552;9.908;2023-04-22T01:17:36;11.30;99.90
13684;DHT22;6914;53.552;9.908;2023-04-22T01:20:09;11.30;99.90
13684;DHT22;6914;53.552;9.908;2023-04-22T01:22:40;11.30;99.90
13684;DHT22;6914;53.552;9.908;2023-04-22T01:25:10;11.20;99.90
13684;DHT22;6914;53.552;9.908;2023-04-22T01:27:37;11.20;99.90
13684;DHT22;6914;53.552;9.908;2023-04-22T01:30:08;11.20;99.90
13684;DHT22;6914;53.552;9.908;2023-04-22T01:32:35;11.10;99.90
13684;DHT22;6914;53.552;9.908;2023-04-22T01:35:03;11.20;99.90
13684;DHT22;6914;53.552;9.908;2023-04-22T01:37:30;11.20;99.90
13684;DHT22;6914;53.552;9.908;2023-04-22T01:39:58;11.30;99.90
13684;DHT22;6914;53.552;9.908;2023-04-22T01:42:27;11.20;99.90
13684;DHT22;6914;53.552;9.908;2023-04-22T01:44:53;11.80;99.90
13684;DHT22;6914;53.552;9.908;2023-04-22T01:47:20;11.30;99.90
13684;DHT22;6914;53.552;9.908;2023-04-22T01:49:47;11.20;99.90
13684;DHT22;6914;53.552;9.908;2023-04-22T01:52:14;11.30;99.90
13684;DHT22;6914;53.552;9.908;2023-04-22T01:54:41;11.20;99.90
13684;DHT22;6914;53.552;9.908;2023-04-22T01:57:09;11.10;99.90
13684;DHT22;6914;53.552;9.908;2023-04-22T01:59:39;11.20;99.90
13684;DHT22;6914;53.552;9.908;2023-04-22T02:02:08;11.10;99.90
13684;DHT22;6914;53.552;9.908;2023-04-22T02:04:35;11.00;99.90
13684;DHT22;6914;53.552;9.908;2023-04-22T02:07:03;11.10;99.90
13684;DHT22;6914;53.552;9.908;2023-04-22T02:09:33;11.10;99.90
13684;DHT22;6914;53.552;9.908;2023-04-22T02:12:00;11.30;99.90
13684;DHT22;6914;53.552;9.908;2023-04-22T02:14:27;11.10;99.90
13684;DHT22;6914;53.552;9.908;2023-04-22T02:16:55;11.10;99.90
13684;DHT22;6914;53.552;9.908;2023-04-22T02:19:22;11.00;99.90
13684;DHT22;6914;53.552;9.908;2023-04-22T02:21:49;11.00;99.90
13684;DHT22;6914;53.552;9.908;2023-04-22T02:24:16;10.90;99.90
13684;DHT22;6914;53.552;9.908;2023-04-22T02:26:43;11.00;99.90
13684;DHT22;6914;53.552;9.908;2023-04-22T02:29:10;10.70;99.90
13684;DHT22;6914;53.552;9.908;2023-04-22T02:31:37;10.90;99.90
13684;DHT22;6914;53.552;9.908;2023-04-22T02:34:07;10.90;99.90
13684;DHT22;6914;53.552;9.908;2023-04-22T02:36:34;10.80;99.90
13684;DHT22;6914;53.552;9.908;2023-04-22T02:39:01;10.90;99.90
13684;DHT22;6914;53.552;9.908;2023-04-22T02:41:30;10.80;99.90
13684;DHT22;6914;53.552;9.908;2023-04-22T02:43:57;10.00;99.90
13684;DHT22;6914;53.552;9.908;2023-04-22T02:46:24;10.80;99.90
13684;DHT22;6914;53.552;9.908;2023-04-22T02:48:51;10.80;99.90
13684;DHT22;6914;53.552;9.908;2023-04-22T02:51:19;10.80;99.90
13684;DHT22;6914;53.552;9.908;2023-04-22T02:53:46;10.80;99.90
13684;DHT22;6914;53.552;9.908;2023-04-22T02:56:13;10.80;99.90
13684;DHT22;6914;53.552;9.908;2023-04-22T02:58:40;10.80;99.90
13684;DHT22;6914;53.552;9.908;2023-04-22T03:01:07;10.80;99.90
13684;DHT22;6914;53.552;9.908;2023-04-22T03:03:34;10.80;99.90
13684;DHT22;6914;53.552;9.908;2023-04-22T03:06:01;11.80;99.90
13684;DHT22;6914;53.552;9.908;2023-04-22T03:08:30;10.60;99.90
13684;DHT22;6914;53.552;9.908;2023-04-22T03:10:57;10.60;99.90
13684;DHT22;6914;53.552;9.908;2023-04-22T03:13:24;10.60;99.90
13684;DHT22;6914;53.552;9.908;2023-04-22T03:15:50;10.60;99.90
13684;DHT22;6914;53.552;9.908;2023-04-22T03:18:17;10.60;99.90
13684;DHT22;6914;53.552;9.908;2023-04-22T03:20:44;10.60;99.90
13684;DHT22;6914;53.552;9.908;2023-04-22T03:23:11;10.60;99.90
13684;DHT22;6914;53.552;9.908;2023-04-22T03:25:39;10.60;99.90
13684;DHT22;6914;53.552;9.908;2023-04-22T03:28:08;10.60;99.90
13684;DHT22;6914;53.552;9.908;2023-04-22T03:30:35;10.50;99.90
13684;DHT22;6914;53.552;9.908;2023-04-22T03:33:02;10.60;99.90
13684;DHT22;6914;53.552;9.908;2023-04-22T03:35:29;10.50;99.90
13684;DHT22;6914;53.552;9.908;2023-04-22T03:37:55;10.50;99.90
13684;DHT22;6914;53.552;9.908;2023-04-22T03:40:22;10.50;99.90
13684;DHT22;6914;53.552;9.908;2023-04-22T03:42:50;10.90;99.90
13684;DHT22;6914;53.552;9.908;2023-04-22T03:45:17;10.40;99.90
13684;DHT22;6914;53.552;9.908;2023-04-22T03:47:44;10.30;99.90
13684;DHT22;6914;53.552;9.908;2023-04-22T03:50:11;9.20;99.90
13684;DHT22;6914;53.552;9.908;2023-04-22T03:52:38;10.20;99.90
13684;DHT22;6914;53.552;9.908;2023-04-22T03:55:05;10.30;99.90
13684;DHT22;6914;53.552;9.908;2023-04-22T03:57:33;10.30;99.90
13684;DHT22;6914;53.552;9.908;2023-04-22T04:00:01;10.30;99.90
13684;DHT22;6914;53.552;9.908;2023-04-22T04:02:28;10.40;99.90
13684;DHT22;6914;53.552;9.908;2023-04-22T04:04:55;10.50;99.90
13684;DHT22;6914;53.552;9.908;2023-04-22T04:07:22;10.30;99.90
13684;DHT22;6914;53.552;9.908;2023-04-22T04:09:49;10.30;99.90
13684;DHT22;6914;53.552;9.908;2023-04-22T04:12:16;10.30;99.90
13684;DHT22;6914;53.552;9.908;2023-04-22T04:14:43;10.30;99.90
13684;DHT22;6914;53.552;9.908;2023-04-22T04:17:12;10.50;99.90
13684;DHT22;6914;53.552;9.908;2023-04-22T04:19:39;10.20;99.90
13684;DHT22;6914;53.552;9.908;2023-04-22T04:22:06;10.20;99.90
13684;DHT22;6914;53.552;9.908;2023-04-22T04:24:35;9.90;99.90
13684;DHT22;6914;53.552;9.908;2023-04-22T04:27:06;10.30;99.90
13684;DHT22;6914;53.552;9.908;2023-04-22T04:29:36;11.10;99.90
13684;DHT22;6914;53.552;9.908;2023-04-22T04:32:04;10.30;99.90
13684;DHT22;6914;53.552;9.908;2023-04-22T04:34:35;11.00;99.90
13684;DHT22;6914;53.552;9.908;2023-04-22T04:37:02;10.30;99.90
13684;DHT22;6914;53.552;9.908;2023-04-22T04:39:29;10.20;99.90
13684;DHT22;6914;53.552;9.908;2023-04-22T04:41:57;10.60;99.90
13684;DHT22;6914;53.552;9.908;2023-04-22T04:44:25;10.30;99.90
13684;DHT22;6914;53.552;9.908;2023-04-22T04:46:52;10.40;99.90
13684;DHT22;6914;53.552;9.908;2023-04-22T04:49:19;10.40;99.90
13684;DHT22;6914;53.552;9.908;2023-04-22T04:51:47;10.30;99.90
13684;DHT22;6914;53.552;9.908;2023-04-22T04:54:14;10.40;99.90
13684;DHT22;6914;53.552;9.908;2023-04-22T04:56:41;10.40;99.90
13684;DHT22;6914;53.552;9.908;2023-04-22T04:59:09;10.30;99.90
13684;DHT22;6914;53.552;9.908;2023-04-22T05:01:36;10.40;99.90
13684;DHT22;6914;53.552;9.908;2023-04-22T05:04:03;10.40;99.90
13684;DHT22;6914;53.552;9.908;2023-04-22T05:06:30;10.10;99.90
13684;DHT22;6914;53.552;9.908;2023-04-22T05:08:58;12.00;99.90
13684;DHT22;6914;53.552;9.908;2023-04-22T05:11:25;10.50;99.90
13684;DHT22;6914;53.552;9.908;2023-04-22T05:13:52;10.50;99.90
13684;DHT22;6914;53.552;9.908;2023-04-22T05:16:19;10.50;99.90
13684;DHT22;6914;53.552;9.908;2023-04-22T05:18:46;11.20;99.90
13684;DHT22;6914;53.552;9.908;2023-04-22T05:21:12;10.60;99.90
13684;DHT22;6914;53.552;9.908;2023-04-22T05:23:40;10.60;99.90
13684;DHT22;6914;53.552;9.908;2023-04-22T05:26:09;10.70;99.90
13684;DHT22;6914;53.552;9.908;2023-04-22T05:28:37;10.60;99.90
13684;DHT22;6914;53.552;9.908;2023-04-22T05:31:04;10.70;99.90
13684;DHT22;6914;53.552;9.908;2023-04-22T05:33:31;10.80;99.90
13684;DHT22;6914;53.552;9.908;2023-04-22T05:35:58;11.00;99.90
13684;DHT22;6914;53.552;9.908;2023-04-22T05:38:25;10.80;99.90
13684;DHT22;6914;53.552;9.908;2023-04-22T05:40:52;10.90;99.90
13684;DHT22;6914;53.552;9.908;2023-04-22T05:43:20;10.90;99.90
13684;DHT22;6914;53.552;9.908;2023-04-22T05:45:47;11.00;99.90
13684;DHT22;6914;53.552;9.908;2023-04-22T05:48:13;11.00;99.90
13684;DHT22;6914;53.552;9.908;2023-04-22T05:50:40;11.00;99.90
13684;DHT22;6914;53.552;9.908;2023-04-22T05:53:07;11.00;99.90
13684;DHT22;6914;53.552;9.908;2023-04-22T05:55:35;11.30;99.90
13684;DHT22;6914;53.552;9.908;2023-04-22T05:58:02;11.20;99.90
13684;DHT22;6914;53.552;9.908;2023-04-22T06:00:30;11.40;99.90
13684;DHT22;6914;53.552;9.908;2023-04-22T06:02:57;11.20;99.90
13684;DHT22;6914;53.552;9.908;2023-04-22T06:05:24;10.70;99.90
13684;DHT22;6914;53.552;9.908;2023-04-22T06:07:51;11.30;99.90
13684;DHT22;6914;53.552;9.908;2023-04-22T06:10:18;11.30;99.90
13684;DHT22;6914;53.552;9.908;2023-04-22T06:12:44;11.50;99.90
13684;DHT22;6914;53.552;9.908;2023-04-22T06:15:11;11.30;99.90
13684;DHT22;6914;53.552;9.908;2023-04-22T06:17:40;11.30;99.90
13684;DHT22;6914;53.552;9.908;2023-04-22T06:20:10;11.40;99.90
13684;DHT22;6914;53.552;9.908;2023-04-22T06:22:39;11.50;99.90
13684;DHT22;6914;53.552;9.908;2023-04-22T06:25:07;12.60;99.90
13684;DHT22;6914;53.552;9.908;2023-04-22T06:27:34;11.60;99.90
13684;DHT22;6914;53.552;9.908;2023-04-22T06:30:02;11.60;99.90
13684;DHT22;6914;53.552;9.908;2023-04-22T06:32:29;11.70;99.90
13684;DHT22;6914;53.552;9.908;2023-04-22T06:34:57;11.80;99.90
13684;DHT22;6914;53.552;9.908;2023-04-22T06:37:24;11.90;99.90
13684;DHT22;6914;53.552;9.908;2023-04-22T06:39:54;12.20;99.90
13684;DHT22;6914;53.552;9.908;2023-04-22T06:42:21;11.80;99.90
13684;DHT22;6914;53.552;9.908;2023-04-22T06:44:48;12.00;99.90
13684;DHT22;6914;53.552;9.908;2023-04-22T06:47:15;12.10;99.90
13684;DHT22;6914;53.552;9.908;2023-04-22T06:49:42;12.00;99.90
13684;DHT22;6914;53.552;9.908;2023-04-22T06:52:10;12.20;99.90
13684;DHT22;6914;53.552;9.908;2023-04-22T06:54:38;12.40;99.90
13684;DHT22;6914;53.552;9.908;2023-04-22T06:57:05;12.50;99.90
13684;DHT22;6914;53.552;9.908;2023-04-22T06:59:33;12.50;99.90
13684;DHT22;6914;53.552;9.908;2023-04-22T07:02:00;11.60;99.90
13684;DHT22;6914;53.552;9.908;2023-04-22T07:04:27;12.50;99.90
13684;DHT22;6914;53.552;9.908;2023-04-22T07:06:56;12.60;99.90
13684;DHT22;6914;53.552;9.908;2023-04-22T07:09:24;12.50;99.90
13684;DHT22;6914;53.552;9.908;2023-04-22T07:11:51;12.60;99.90
13684;DHT22;6914;53.552;9.908;2023-04-22T07:14:17;12.60;99.90
13684;DHT22;6914;53.552;9.908;2023-04-22T07:16:45;12.50;99.90
13684;DHT22;6914;53.552;9.908;2023-04-22T07:19:13;12.70;99.90
13684;DHT22;6914;53.552;9.908;2023-04-22T07:21:40;12.40;99.90
13684;DHT22;6914;53.552;9.908;2023-04-22T07:24:07;12.70;99.90
13684;DHT22;6914;53.552;9.908;2023-04-22T07:26:38;12.80;99.90
13684;DHT22;6914;53.552;9.908;2023-04-22T07:29:05;13.00;99.90
13684;DHT22;6914;53.552;9.908;2023-04-22T07:31:33;13.20;99.90
13684;DHT22;6914;53.552;9.908;2023-04-22T07:34:01;12.90;99.90
13684;DHT22;6914;53.552;9.908;2023-04-22T07:36:28;13.10;99.90
13684;DHT22;6914;53.552;9.908;2023-04-22T07:38:57;13.10;99.90
13684;DHT22;6914;53.552;9.908;2023-04-22T07:41:24;13.10;99.90
13684;DHT22;6914;53.552;9.908;2023-04-22T07:43:52;13.20;99.90
13684;DHT22;6914;53.552;9.908;2023-04-22T07:46:19;13.40;99.90
13684;DHT22;6914;53.552;9.908;2023-04-22T07:48:46;13.80;99.90
13684;DHT22;6914;53.552;9.908;2023-04-22T07:51:14;13.60;99.90
13684;DHT22;6914;53.552;9.908;2023-04-22T07:53:42;13.50;99.90
13684;DHT22;6914;53.552;9.908;2023-04-22T07:56:09;13.70;99.90
13684;DHT22;6914;53.552;9.908;2023-04-22T07:58:36;14.40;99.90
13684;DHT22;6914;53.552;9.908;2023-04-22T08:01:05;14.00;99.90
13684;DHT22;6914;53.552;9.908;2023-04-22T08:03:32;14.10;99.90
13684;DHT22;6914;53.552;9.908;2023-04-22T08:05:58;14.40;99.90
13684;DHT22;6914;53.552;9.908;2023-04-22T08:08:25;14.20;99.90
13684;DHT22;6914;53.552;9.908;2023-04-22T08:10:52;14.40;99.90
13684;DHT22;6914;53.552;9.908;2023-04-22T08:13:19;14.40;99.90
13684;DHT22;6914;53.552;9.908;2023-04-22T08:15:46;14.60;99.90
13684;DHT22;6914;53.552;9.908;2023-04-22T08:18:14;14.80;99.90
13684;DHT22;6914;53.552;9.908;2023-04-22T08:20:42;15.00;99.90
13684;DHT22;6914;53.552;9.908;2023-04-22T08:23:09;15.30;99.90
13684;DHT22;6914;53.552;9.908;2023-04-22T08:25:36;15.30;99.90
13684;DHT22;6914;53.552;9.908;2023-04-22T08:28:03;16.60;99.90
13684;DHT22;6914;53.552;9.908;2023-04-22T08:30:30;15.30;99.90
13684;DHT22;6914;53.552;9.908;2023-04-22T08:32:57;15.40;99.90
13684;DHT22;6914;53.552;9.908;2023-04-22T08:35:25;15.30;99.90
13684;DHT22;6914;53.552;9.908;2023-04-22T08:37:52;15.60;99.90
13684;DHT22;6914;53.552;9.908;2023-04-22T08:40:19;15.70;99.90
13684;DHT22;6914;53.552;9.908;2023-04-22T08:42:46;16.00;99.40
13684;DHT22;6914;53.552;9.908;2023-04-22T08:45:14;16.20;95.80
13684;DHT22;6914;53.552;9.908;2023-04-22T08:47:43;16.00;95.00
13684;DHT22;6914;53.552;9.908;2023-04-22T08:50:10;16.20;94.20
13684;DHT22;6914;53.552;9.908;2023-04-22T08:52:40;16.30;95.10
13684;DHT22;6914;53.552;9.908;2023-04-22T08:55:07;16.40;94.90
13684;DHT22;6914;53.552;9.908;2023-04-22T08:57:35;16.40;94.40
13684;DHT22;6914;53.552;9.908;2023-04-22T09:00:04;16.50;94.00
13684;DHT22;6914;53.552;9.908;2023-04-22T09:02:33;16.70;93.70
13684;DHT22;6914;53.552;9.908;2023-04-22T09:05:02;16.90;92.70
13684;DHT22;6914;53.552;9.908;2023-04-22T09:07:30;17.00;92.20
13684;DHT22;6914;53.552;9.908;2023-04-22T09:09:58;17.30;91.30
13684;DHT22;6914;53.552;9.908;2023-04-22T09:12:25;17.60;91.40
13684;DHT22;6914;53.552;9.908;2023-04-22T09:14:53;17.80;88.90
13684;DHT22;6914;53.552;9.908;2023-04-22T09:17:29;17.80;87.20
13684;DHT22;6914;53.552;9.908;2023-04-22T09:19:57;18.40;86.00
13684;DHT22;6914;53.552;9.908;2023-04-22T09:22:25;17.10;86.20
13684;DHT22;6914;53.552;9.908;2023-04-22T09:24:52;18.80;83.20
13684;DHT22;6914;53.552;9.908;2023-04-22T09:27:23;19.20;83.20
13684;DHT22;6914;53.552;9.908;2023-04-22T09:29:51;19.50;79.30
13684;DHT22;6914;53.552;9.908;2023-04-22T09:32:22;20.10;78.20
13684;DHT22;6914;53.552;9.908;2023-04-22T09:34:51;20.30;78.30
13684;DHT22;6914;53.552;9.908;2023-04-22T09:37:22;20.90;78.10
13684;DHT22;6914;53.552;9.908;2023-04-22T09:39:50;21.10;75.20
13684;DHT22;6914;53.552;9.908;2023-04-22T09:42:20;21.30;75.20
13684;DHT22;6914;53.552;9.908;2023-04-22T09:44:48;21.50;74.00
13684;DHT22;6914;53.552;9.908;2023-04-22T09:47:19;21.00;73.30
13684;DHT22;6914;53.552;9.908;2023-04-22T09:49:46;21.50;73.10
13684;DHT22;6914;53.552;9.908;2023-04-22T09:52:20;21.90;73.50
13684;DHT22;6914;53.552;9.908;2023-04-22T09:54:49;22.50;72.70
13684;DHT22;6914;53.552;9.908;2023-04-22T09:57:19;23.50;70.80
13684;DHT22;6914;53.552;9.908;2023-04-22T09:59:49;23.40;69.70
13684;DHT22;6914;53.552;9.908;2023-04-22T10:02:16;24.30;69.20
13684;DHT22;6914;53.552;9.908;2023-04-22T10:04:43;26.20;69.30
13684;DHT22;6914;53.552;9.908;2023-04-22T10:07:12;24.90;66.60
13684;DHT22;6914;53.552;9.908;2023-04-22T10:09:40;25.00;65.20
13684;DHT22;6914;53.552;9.908;2023-04-22T10:12:07;25.30;65.00
13684;DHT22;6914;53.552;9.908;2023-04-22T10:14:33;25.20;65.20
13684;DHT22;6914;53.552;9.908;2023-04-22T10:17:02;25.10;65.00
13684;DHT22;6914;53.552;9.908;2023-04-22T10:19:30;25.50;64.30
13684;DHT22;6914;53.552;9.908;2023-04-22T10:22:00;25.60;65.50
13684;DHT22;6914;53.552;9.908;2023-04-22T10:24:29;25.70;64.50
13684;DHT22;6914;53.552;9.908;2023-04-22T10:27:02;25.20;64.70
13684;DHT22;6914;53.552;9.908;2023-04-22T10:29:35;25.60;64.70
13684;DHT22;6914;53.552;9.908;2023-04-22T10:32:05;25.90;63.80
13684;DHT22;6914;53.552;9.908;2023-04-22T10:34:34;25.80;64.60
13684;DHT22;6914;53.552;9.908;2023-04-22T10:37:06;26.80;65.10
13684;DHT22;6914;53.552;9.908;2023-04-22T10:39:34;25.80;61.60
13684;DHT22;6914;53.552;9.908;2023-04-22T10:42:07;26.30;64.00
13684;DHT22;6914;53.552;9.908;2023-04-22T10:44:46;26.70;62.60
13684;DHT22;6914;53.552;9.908;2023-04-22T10:47:25;26.00;61.90
13684;DHT22;6914;53.552;9.908;2023-04-22T10:50:18;26.60;63.00
13684;DHT22;6914;53.552;9.908;2023-04-22T10:52:48;26.20;62.20
13684;DHT22;6914;53.552;9.908;2023-04-22T10:55:15;26.50;63.10
13684;DHT22;6914;53.552;9.908;2023-04-22T10:57:43;25.20;62.00
13684;DHT22;6914;53.552;9.908;2023-04-22T11:00:33;26.30;62.10
13684;DHT22;6914;53.552;9.908;2023-04-22T11:03:11;26.30;62.40
13684;DHT22;6914;53.552;9.908;2023-04-22T11:05:38;26.60;61.60
13684;DHT22;6914;53.552;9.908;2023-04-22T11:08:06;27.00;62.70
13684;DHT22;6914;53.552;9.908;2023-04-22T11:10:39;27.80;61.60
13684;DHT22;6914;53.552;9.908;2023-04-22T11:13:08;27.60;61.20
13684;DHT22;6914;53.552;9.908;2023-04-22T11:15:37;27.80;59.60
13684;DHT22;6914;53.552;9.908;2023-04-22T11:18:12;27.00;61.10
13684;DHT22;6914;53.552;9.908;2023-04-22T11:20:40;27.10;60.00
13684;DHT22;6914;53.552;9.908;2023-04-22T11:23:07;27.40;61.40
13684;DHT22;6914;53.552;9.908;2023-04-22T11:25:34;27.20;60.80
13684;DHT22;6914;53.552;9.908;2023-04-22T11:28:01;26.40;61.70
13684;DHT22;6914;53.552;9.908;2023-04-22T11:30:31;27.10;61.60
13684;DHT22;6914;53.552;9.908;2023-04-22T11:32:59;27.20;61.50
13684;DHT22;6914;53.552;9.908;2023-04-22T11:35:32;27.20;60.20
13684;DHT22;6914;53.552;9.908;2023-04-22T11:38:00;27.00;62.40
13684;DHT22;6914;53.552;9.908;2023-04-22T11:40:29;26.30;61.20
13684;DHT22;6914;53.552;9.908;2023-04-22T11:42:57;26.80;62.60
13684;DHT22;6914;53.552;9.908;2023-04-22T11:45:25;27.20;61.60
13684;DHT22;6914;53.552;9.908;2023-04-22T11:47:53;27.10;60.50
13684;DHT22;6914;53.552;9.908;2023-04-22T11:50:22;27.10;61.60
13684;DHT22;6914;53.552;9.908;2023-04-22T11:52:53;27.60;61.70
13684;DHT22;6914;53.552;9.908;2023-04-22T11:55:22;27.50;61.00
13684;DHT22;6914;53.552;9.908;2023-04-22T11:57:55;28.40;62.40
13684;DHT22;6914;53.552;9.908;2023-04-22T12:00:23;27.00;60.40
13684;DHT22;6914;53.552;9.908;2023-04-22T12:02:55;28.50;61.30
13684;DHT22;6914;53.552;9.908;2023-04-22T12:05:31;27.80;60.30
13684;DHT22;6914;53.552;9.908;2023-04-22T12:08:01;27.50;61.30
13684;DHT22;6914;53.552;9.908;2023-04-22T12:10:28;27.80;59.70
13684;DHT22;6914;53.552;9.908;2023-04-22T12:12:55;27.60;60.90
13684;DHT22;6914;53.552;9.908;2023-04-22T12:15:22;27.80;60.10
13684;DHT22;6914;53.552;9.908;2023-04-22T12:17:49;27.20;60.60
13684;DHT22;6914;53.552;9.908;2023-04-22T12:20:18;26.10;60.90
13684;DHT22;6914;53.552;9.908;2023-04-22T12:22:45;26.00;63.50
13684;DHT22;6914;53.552;9.908;2023-04-22T12:25:19;25.00;64.50
13684;DHT22;6914;53.552;9.908;2023-04-22T12:27:45;24.40;64.10
13684;DHT22;6914;53.552;9.908;2023-04-22T12:30:13;24.60;65.50
13684;DHT22;6914;53.552;9.908;2023-04-22T12:32:41;24.60;64.90
13684;DHT22;6914;53.552;9.908;2023-04-22T12:35:08;24.90;64.60
13684;DHT22;6914;53.552;9.908;2023-04-22T12:37:34;25.20;65.00
13684;DHT22;6914;53.552;9.908;2023-04-22T12:40:02;25.20;65.10
13684;DHT22;6914;53.552;9.908;2023-04-22T12:42:32;25.40;65.60
13684;DHT22;6914;53.552;9.908;2023-04-22T12:44:59;25.80;64.70
13684;DHT22;6914;53.552;9.908;2023-04-22T12:47:26;25.70;64.30
13684;DHT22;6914;53.552;9.908;2023-04-22T12:49:52;25.50;63.90
13684;DHT22;6914;53.552;9.908;2023-04-22T12:52:19;24.50;62.50
13684;DHT22;6914;53.552;9.908;2023-04-22T12:54:46;25.10;64.20
13684;DHT22;6914;53.552;9.908;2023-04-22T12:57:13;25.40;63.60
13684;DHT22;6914;53.552;9.908;2023-04-22T12:59:41;25.30;64.50
13684;DHT22;6914;53.552;9.908;2023-04-22T13:02:09;25.00;64.30
13684;DHT22;6914;53.552;9.908;2023-04-22T13:04:36;24.30;64.30
13684;DHT22;6914;53.552;9.908;2023-04-22T13:07:03;24.20;64.90
13684;DHT22;6914;53.552;9.908;2023-04-22T13:09:30;23.00;63.90
13684;DHT22;6914;53.552;9.908;2023-04-22T13:11:57;24.50;65.20
13684;DHT22;6914;53.552;9.908;2023-04-22T13:14:25;24.00;63.90
13684;DHT22;6914;53.552;9.908;2023-04-22T13:16:53;24.00;64.70
13684;DHT22;6914;53.552;9.908;2023-04-22T13:19:20;24.00;65.60
13684;DHT22;6914;53.552;9.908;2023-04-22T13:21:50;24.00;65.70
13684;DHT22;6914;53.552;9.908;2023-04-22T13:24:17;24.10;66.10
13684;DHT22;6914;53.552;9.908;2023-04-22T13:26:44;24.40;66.40
13684;DHT22;6914;53.552;9.908;2023-04-22T13:29:11;24.70;66.10
13684;DHT22;6914;53.552;9.908;2023-04-22T13:31:40;24.70;66.20
13684;DHT22;6914;53.552;9.908;2023-04-22T13:34:09;24.20;64.40
13684;DHT22;6914;53.552;9.908;2023-04-22T13:36:36;24.10;64.80
13684;DHT22;6914;53.552;9.908;2023-04-22T13:39:03;22.30;62.00
13684;DHT22;6914;53.552;9.908;2023-04-22T13:41:30;24.50;64.20
13684;DHT22;6914;53.552;9.908;2023-04-22T13:43:57;23.80;64.00
13684;DHT22;6914;53.552;9.908;2023-04-22T13:46:24;23.50;63.60
13684;DHT22;6914;53.552;9.908;2023-04-22T13:48:52;23.60;64.00
13684;DHT22;6914;53.552;9.908;2023-04-22T13:51:21;23.70;64.10
13684;DHT22;6914;53.552;9.908;2023-04-22T13:53:48;24.00;64.40
13684;DHT22;6914;53.552;9.908;2023-04-22T13:56:15;24.10;64.90
13684;DHT22;6914;53.552;9.908;2023-04-22T13:58:42;23.90;65.40
13684;DHT22;6914;53.552;9.908;2023-04-22T14:01:09;23.80;66.10
13684;DHT22;6914;53.552;9.908;2023-04-22T14:03:36;23.70;65.90
13684;DHT22;6914;53.552;9.908;2023-04-22T14:06:03;23.80;66.60
13684;DHT22;6914;53.552;9.908;2023-04-22T14:08:31;23.40;66.60
13684;DHT22;6914;53.552;9.908;2023-04-22T14:10:58;23.40;67.20
13684;DHT22;6914;53.552;9.908;2023-04-22T14:13:27;23.30;66.40
13684;DHT22;6914;53.552;9.908;2023-04-22T14:15:54;23.00;66.40
13684;DHT22;6914;53.552;9.908;2023-04-22T14:18:21;23.20;66.90
13684;DHT22;6914;53.552;9.908;2023-04-22T14:20:49;23.30;66.30
13684;DHT22;6914;53.552;9.908;2023-04-22T14:23:16;23.20;67.00
13684;DHT22;6914;53.552;9.908;2023-04-22T14:25:45;23.00;67.40
13684;DHT22;6914;53.552;9.908;2023-04-22T14:28:12;23.10;66.80
13684;DHT22;6914;53.552;9.908;2023-04-22T14:30:39;23.30;66.80
13684;DHT22;6914;53.552;9.908;2023-04-22T14:33:07;23.50;66.70
13684;DHT22;6914;53.552;9.908;2023-04-22T14:35:34;23.40;66.60
13684;DHT22;6914;53.552;9.908;2023-04-22T14:38:04;23.40;66.60
13684;DHT22;6914;53.552;9.908;2023-04-22T14:40:32;23.70;67.40
13684;DHT22;6914;53.552;9.908;2023-04-22T14:43:02;23.40;66.60
13684;DHT22;6914;53.552;9.908;2023-04-22T14:45:30;23.60;66.70
13684;DHT22;6914;53.552;9.908;2023-04-22T14:47:57;23.50;66.70
13684;DHT22;6914;53.552;9.908;2023-04-22T14:50:25;23.70;66.50
13684;DHT22;6914;53.552;9.908;2023-04-22T14:52:52;23.40;66.50
13684;DHT22;6914;53.552;9.908;2023-04-22T14:55:21;23.30;66.10
13684;DHT22;6914;53.552;9.908;2023-04-22T14:57:48;23.40;66.40
13684;DHT22;6914;53.552;9.908;2023-04-22T15:00:17;23.20;66.30
13684;DHT22;6914;53.552;9.908;2023-04-22T15:02:44;23.30;67.10
13684;DHT22;6914;53.552;9.908;2023-04-22T15:05:11;23.40;66.40
13684;DHT22;6914;53.552;9.908;2023-04-22T15:07:38;23.50;66.50
13684;DHT22;6914;53.552;9.908;2023-04-22T15:10:06;23.40;67.00
13684;DHT22;6914;53.552;9.908;2023-04-22T15:12:33;25.10;68.60
13684;DHT22;6914;53.552;9.908;2023-04-22T15:14:59;23.10;66.80
13684;DHT22;6914;53.552;9.908;2023-04-22T15:17:28;23.30;67.60
13684;DHT22;6914;53.552;9.908;2023-04-22T15:19:55;23.40;67.80
13684;DHT22;6914;53.552;9.908;2023-04-22T15:22:22;23.70;68.50
13684;DHT22;6914;53.552;9.908;2023-04-22T15:24:50;23.70;68.40
13684;DHT22;6914;53.552;9.908;2023-04-22T15:27:17;23.50;70.50
13684;DHT22;6914;53.552;9.908;2023-04-22T15:29:44;22.30;66.40
13684;DHT22;6914;53.552;9.908;2023-04-22T15:32:12;23.60;67.60
13684;DHT22;6914;53.552;9.908;2023-04-22T15:34:40;23.20;67.30
13684;DHT22;6914;53.552;9.908;2023-04-22T15:37:07;23.30;67.40
13684;DHT22;6914;53.552;9.908;2023-04-22T15:39:33;23.30;67.70
13684;DHT22;6914;53.552;9.908;2023-04-22T15:42:00;23.30;68.10
13684;DHT22;6914;53.552;9.908;2023-04-22T15:44:28;23.20;67.90
13684;DHT22;6914;53.552;9.908;2023-04-22T15:46:56;23.40;68.80
13684;DHT22;6914;53.552;9.908;2023-04-22T15:49:23;22.90;68.20
13684;DHT22;6914;53.552;9.908;2023-04-22T15:51:52;23.20;68.60